Time;durP1;ratioP1;P1;durP2;ratioP2;P2;SDS_P1;SDS_P2;PMS_P1;PMS_P2;Temp;Humidity;BMP_temperature;BMP_pressure;BME280_temperature;BME280_humidity;BME280_pressure;Samples;Min_cycle;Max_cycle;Signal;HPM_P1;HPM_P2
2023/09/07 00:01:36;;;;;;;13.50;9.00;;;;;;;20.62;100.00;101983.28;5049551;28;20028;-69
2023/09/07 00:04:03;;;;;;;11.05;8.05;;;;;;;20.63;100.00;101977.00;5051383;28;20017;-69
2023/09/07 00:06:28;;;;;;;9.48;8.30;;;;;;;20.58;100.00;101977.25;5050352;28;20095;-66
2023/09/07 00:08:54;;;;;;;10.18;8.32;;;;;;;20.54;100.00;101977.53;5051148;28;20053;-65
2023/09/07 00:11:19;;;;;;;11.00;8.25;;;;;;;20.54;100.00;101977.53;5050729;28;20107;-72
2023/09/07 00:13:44;;;;;;;10.88;8.93;;;;;;;20.53;100.00;101970.47;5050546;28;20025;-59
2023/09/07 00:16:10;;;;;;;10.73;8.43;;;;;;;20.54;100.00;101967.69;5049998;28;20037;-68
2023/09/07 00:18:36;;;;;;;11.88;9.18;;;;;;;20.52;100.00;101968.72;5050969;28;20021;-69
2023/09/07 00:21:01;;;;;;;11.30;8.95;;;;;;;20.50;100.00;101973.31;5050496;28;20025;-66
2023/09/07 00:23:27;;;;;;;11.70;8.35;;;;;;;20.52;100.00;101976.75;5049810;28;20087;-70
2023/09/07 00:25:52;;;;;;;9.65;8.27;;;;;;;20.45;100.00;101974.44;5051080;28;20586;-54
2023/09/07 00:28:17;;;;;;;9.48;8.02;;;;;;;20.45;100.00;101974.44;5049462;28;20445;-68
2023/09/07 00:30:43;;;;;;;11.00;7.50;;;;;;;20.40;100.00;101970.28;5032534;28;20063;-59
2023/09/07 00:33:08;;;;;;;10.93;7.82;;;;;;;20.37;100.00;101966.00;5050263;28;20021;-70
2023/09/07 00:35:34;;;;;;;10.90;7.50;;;;;;;20.39;100.00;101968.56;5049735;28;20091;-67
2023/09/07 00:37:59;;;;;;;8.57;7.35;;;;;;;20.35;100.00;101967.91;5050213;28;20078;-69
2023/09/07 00:40:26;;;;;;;9.18;7.85;;;;;;;20.39;100.00;101969.44;5048778;28;20029;-63
2023/09/07 00:42:51;;;;;;;9.75;8.13;;;;;;;20.35;100.00;101967.91;5048893;28;20021;-69
2023/09/07 00:45:17;;;;;;;11.18;8.55;;;;;;;20.32;100.00;101962.72;5050662;28;20029;-66
2023/09/07 00:47:42;;;;;;;8.55;7.75;;;;;;;20.30;100.00;101970.84;5046547;28;20029;-65
2023/09/07 00:50:08;;;;;;;10.82;8.05;;;;;;;20.28;100.00;101963.84;5028832;28;20044;-69
2023/09/07 00:52:34;;;;;;;12.52;8.35;;;;;;;20.22;100.00;101969.56;5048794;28;20093;-68
2023/09/07 00:55:01;;;;;;;9.15;8.15;;;;;;;20.12;100.00;101956.69;5030763;28;20033;-68
2023/09/07 00:57:27;;;;;;;9.13;7.65;;;;;;;20.12;100.00;101956.69;5049876;28;20033;-69
2023/09/07 00:59:52;;;;;;;9.88;8.20;;;;;;;20.10;100.00;101958.59;5048931;28;20155;-54
2023/09/07 01:02:18;;;;;;;9.85;7.70;;;;;;;20.04;100.00;101956.25;5028404;28;20063;-67
2023/09/07 01:04:43;;;;;;;9.75;7.90;;;;;;;19.97;100.00;101957.53;5049942;28;20615;-68
2023/09/07 01:07:15;;;;;;;8.95;7.88;;;;;;;19.93;100.00;101956.84;5030388;28;20110;-64
2023/09/07 01:09:41;;;;;;;8.75;7.68;;;;;;;19.91;100.00;101953.38;5031017;28;20028;-65
2023/09/07 01:12:10;;;;;;;9.13;7.72;;;;;;;19.87;100.00;101952.69;5081237;23;20053;-69
2023/09/07 01:14:36;;;;;;;9.48;8.48;;;;;;;19.87;100.00;101947.34;5009195;28;20033;-65
2023/09/07 01:17:03;;;;;;;9.60;8.60;;;;;;;19.85;100.00;101946.56;5009289;28;20032;-68
2023/09/07 01:19:28;;;;;;;10.88;8.73;;;;;;;19.85;100.00;101949.25;4990898;28;20111;-65
2023/09/07 01:21:53;;;;;;;9.80;8.57;;;;;;;19.79;100.00;101950.47;5010209;28;20018;-68
2023/09/07 01:24:20;;;;;;;9.68;7.93;;;;;;;19.75;100.00;101948.03;5008745;28;20038;-66
2023/09/07 01:26:49;;;;;;;12.85;9.35;;;;;;;19.44;100.00;101940.75;4990678;28;20049;-65
2023/09/07 01:29:16;;;;;;;9.60;8.70;;;;;;;19.62;100.00;101939.84;5008968;28;20034;-66
2023/09/07 01:31:42;;;;;;;9.60;8.45;;;;;;;19.65;100.00;101942.31;5009328;28;20369;-70
2023/09/07 01:34:08;;;;;;;11.07;8.32;;;;;;;19.66;100.00;101939.56;5010050;28;20025;-66
2023/09/07 01:36:34;;;;;;;11.40;8.90;;;;;;;19.66;100.00;101939.56;5008838;28;20041;-63
2023/09/07 01:38:59;;;;;;;8.93;7.97;;;;;;;19.64;100.00;101936.13;5007943;28;20025;-68
2023/09/07 01:41:24;;;;;;;16.13;9.07;;;;;;;19.66;100.00;101934.22;5008121;28;20523;-65
2023/09/07 01:43:50;;;;;;;10.35;8.73;;;;;;;19.61;100.00;101935.44;5008897;28;20460;-68
2023/09/07 01:46:15;;;;;;;10.27;9.20;;;;;;;19.62;100.00;101943.38;5009567;28;20025;-70
2023/09/07 01:48:42;;;;;;;11.25;9.40;;;;;;;19.58;100.00;101936.47;5008522;28;20113;-70
2023/09/07 01:51:07;;;;;;;12.27;8.95;;;;;;;19.58;100.00;101936.47;5007873;28;20026;-68
2023/09/07 01:53:33;;;;;;;10.60;8.77;;;;;;;19.59;100.00;101932.84;5008679;28;20627;-68
2023/09/07 01:55:59;;;;;;;12.18;9.50;;;;;;;19.59;100.00;101937.34;5008883;28;20037;-65
2023/09/07 01:58:24;;;;;;;11.32;9.13;;;;;;;19.61;100.00;101925.59;5008866;28;20030;-67
2023/09/07 02:00:50;;;;;;;11.80;9.80;;;;;;;19.59;100.00;101932.84;5009424;28;20037;-68
2023/09/07 02:03:15;;;;;;;10.48;9.27;;;;;;;19.53;100.00;101935.84;5007639;28;20113;-69
2023/09/07 02:05:40;;;;;;;10.32;8.38;;;;;;;19.52;100.00;101934.13;5007821;28;20114;-62
2023/09/07 02:08:06;;;;;;;13.43;9.32;;;;;;;19.45;100.00;101937.13;5008863;28;20028;-65
2023/09/07 02:10:31;;;;;;;13.63;10.07;;;;;;;19.49;100.00;101942.31;5009008;28;20041;-70
2023/09/07 02:12:57;;;;;;;11.05;9.90;;;;;;;19.44;100.00;101951.44;5007213;28;20048;-67
2023/09/07 02:15:23;;;;;;;11.82;9.30;;;;;;;19.38;100.00;101943.75;5007332;28;20037;-63
2023/09/07 02:17:48;;;;;;;12.25;10.52;;;;;;;19.37;100.00;101955.41;5007985;28;20021;-69
2023/09/07 02:20:14;;;;;;;14.38;10.68;;;;;;;19.32;100.00;101952.09;5008539;28;20583;-70
2023/09/07 02:22:39;;;;;;;12.18;9.55;;;;;;;19.25;100.00;101951.56;5007749;28;20022;-67
2023/09/07 02:25:05;;;;;;;15.75;10.07;;;;;;;19.23;100.00;101947.25;5008122;28;20465;-68
2023/09/07 02:27:32;;;;;;;14.00;10.15;;;;;;;19.17;100.00;101945.75;5007076;28;20112;-55
2023/09/07 02:29:57;;;;;;;11.73;10.52;;;;;;;19.14;100.00;101944.13;5007815;28;20050;-70
2023/09/07 02:32:23;;;;;;;13.57;10.57;;;;;;;19.05;100.00;101945.44;5007863;28;20057;-65
2023/09/07 02:34:48;;;;;;;12.07;9.57;;;;;;;19.02;100.00;101934.91;5007985;28;20053;-65
2023/09/07 02:37:15;;;;;;;12.98;10.88;;;;;;;19.00;100.00;101935.94;5007490;28;20583;-69
2023/09/07 02:39:41;;;;;;;13.48;11.20;;;;;;;19.00;100.00;101936.81;5006312;28;20053;-63
2023/09/07 02:42:06;;;;;;;14.57;10.73;;;;;;;19.01;100.00;101935.00;5007924;28;20065;-73
2023/09/07 02:44:32;;;;;;;13.02;10.85;;;;;;;18.99;100.00;101942.25;5007661;28;20029;-69
2023/09/07 02:46:57;;;;;;;14.15;10.50;;;;;;;19.01;100.00;101940.34;5008567;28;20358;-60
2023/09/07 02:49:22;;;;;;;11.55;10.35;;;;;;;18.95;100.00;101946.88;5007586;28;20435;-61
2023/09/07 02:51:48;;;;;;;11.60;10.35;;;;;;;18.92;100.00;101947.91;5007770;28;20036;-73
2023/09/07 02:54:13;;;;;;;15.25;11.32;;;;;;;18.92;100.00;101939.88;5008430;28;20021;-67
2023/09/07 02:56:38;;;;;;;15.60;10.77;;;;;;;18.88;100.00;101946.34;5007095;28;20065;-66
2023/09/07 02:59:04;;;;;;;13.57;11.25;;;;;;;18.88;100.00;101940.13;5009251;28;20117;-72
2023/09/07 03:01:30;;;;;;;12.57;11.05;;;;;;;18.85;100.00;101946.50;5007436;28;20113;-70
2023/09/07 03:03:55;;;;;;;13.38;10.95;;;;;;;18.81;100.00;101950.22;5006687;28;20030;-56
2023/09/07 03:06:21;;;;;;;15.75;11.57;;;;;;;18.78;100.00;101942.41;4990469;28;20096;-68
2023/09/07 03:08:46;;;;;;;15.13;12.02;;;;;;;18.82;100.00;101947.50;5006623;28;20033;-70
2023/09/07 03:11:12;;;;;;;14.68;11.57;;;;;;;18.77;100.00;101946.00;5008603;28;20091;-71
2023/09/07 03:13:38;;;;;;;14.23;11.68;;;;;;;18.69;100.00;101943.72;5006842;28;20030;-65
2023/09/07 03:16:03;;;;;;;16.80;13.15;;;;;;;18.66;100.00;101949.25;5007338;28;20026;-70
2023/09/07 03:18:29;;;;;;;16.42;12.40;;;;;;;18.62;100.00;101942.31;5007693;28;20057;-70
2023/09/07 03:20:57;;;;;;;13.80;11.48;;;;;;;18.61;100.00;101945.94;4989426;28;20037;-67
2023/09/07 03:23:23;;;;;;;17.77;13.38;;;;;;;18.60;100.00;101945.06;5012683;28;20025;-64
2023/09/07 03:25:48;;;;;;;16.30;12.90;;;;;;;18.59;100.00;101938.00;5007986;28;20018;-68
2023/09/07 03:28:13;;;;;;;15.23;12.57;;;;;;;18.60;100.00;101942.38;5007626;28;20125;-72
2023/09/07 03:30:39;;;;;;;15.00;12.95;;;;;;;18.59;100.00;101937.13;5009643;28;20546;-71
2023/09/07 03:33:05;;;;;;;17.40;13.57;;;;;;;18.63;100.00;101934.22;4994659;28;20049;-65
2023/09/07 03:35:31;;;;;;;17.60;13.20;;;;;;;18.65;100.00;101934.16;5011996;28;20496;-69
2023/09/07 03:37:56;;;;;;;18.33;13.63;;;;;;;18.65;100.00;101936.81;5014769;28;20036;-66
2023/09/07 03:40:21;;;;;;;18.83;13.98;;;;;;;18.66;100.00;101931.41;5032548;28;20097;-68
2023/09/07 03:42:47;;;;;;;18.27;13.77;;;;;;;18.68;100.00;101932.19;5029923;28;20375;-65
2023/09/07 03:45:12;;;;;;;20.35;12.85;;;;;;;18.64;100.00;101941.31;5031160;28;20029;-66
2023/09/07 03:47:38;;;;;;;16.30;13.45;;;;;;;18.69;100.00;101933.91;5023079;28;20057;-71
2023/09/07 03:50:04;;;;;;;15.82;13.48;;;;;;;18.70;100.00;101940.13;5013301;28;20032;-65
2023/09/07 03:52:30;;;;;;;18.67;14.55;;;;;;;18.70;100.00;101940.13;5029583;28;20056;-65
2023/09/07 03:54:55;;;;;;;15.88;14.20;;;;;;;18.69;100.00;101936.59;5031391;28;20040;-70
2023/09/07 03:57:21;;;;;;;18.33;13.68;;;;;;;18.68;100.00;101940.22;5012819;28;20108;-70
2023/09/07 03:59:47;;;;;;;18.33;13.55;;;;;;;18.64;100.00;101943.09;5015400;28;20041;-69
2023/09/07 04:02:12;;;;;;;16.15;13.48;;;;;;;18.65;100.00;101942.16;5010722;28;20050;-67
2023/09/07 04:04:38;;;;;;;17.02;13.73;;;;;;;18.62;100.00;101937.84;5009971;28;20041;-65
2023/09/07 04:07:04;;;;;;;18.02;14.27;;;;;;;18.64;100.00;101938.63;5011012;28;20084;-71
2023/09/07 04:09:29;;;;;;;18.50;14.25;;;;;;;18.60;100.00;101947.72;5011355;28;20639;-65
2023/09/07 04:11:54;;;;;;;16.52;14.63;;;;;;;18.56;100.00;101948.81;5011572;28;20649;-66
2023/09/07 04:14:20;;;;;;;23.40;14.20;;;;;;;18.53;100.00;101947.19;5010855;28;20046;-72
2023/09/07 04:16:45;;;;;;;16.35;13.60;;;;;;;18.48;100.00;101949.19;5009882;28;20045;-70
2023/09/07 04:19:10;;;;;;;17.13;13.93;;;;;;;18.42;100.00;101947.72;5011041;28;20038;-66
2023/09/07 04:21:36;;;;;;;16.85;14.57;;;;;;;18.46;100.00;101947.56;5010726;28;20030;-69
2023/09/07 04:24:02;;;;;;;17.75;14.70;;;;;;;18.43;100.00;101946.75;4993304;28;20124;-68
2023/09/07 04:26:28;;;;;;;22.90;14.50;;;;;;;18.34;100.00;101938.34;5011069;28;20520;-70
2023/09/07 04:28:53;;;;;;;17.75;14.63;;;;;;;18.29;100.00;101946.59;5009921;28;20057;-68
2023/09/07 04:31:19;;;;;;;20.35;15.63;;;;;;;18.34;100.00;101955.25;5010764;28;20104;-69
2023/09/07 04:33:44;;;;;;;21.80;15.80;;;;;;;18.34;100.00;101949.03;5010704;28;20117;-66
2023/09/07 04:36:10;;;;;;;21.67;15.23;;;;;;;18.27;100.00;101953.81;5011134;28;20026;-70
2023/09/07 04:38:36;;;;;;;19.60;15.05;;;;;;;18.26;100.00;101952.94;5010417;28;20491;-61
2023/09/07 04:41:09;;;;;;;19.02;14.65;;;;;;;18.26;100.00;101952.06;5009743;28;20042;-68
2023/09/07 04:43:35;;;;;;;20.80;14.90;;;;;;;18.22;100.00;101951.38;5010111;28;20018;-61
2023/09/07 04:46:00;;;;;;;21.08;15.25;;;;;;;18.23;100.00;101952.22;5011550;28;20112;-65
2023/09/07 04:48:25;;;;;;;21.90;15.70;;;;;;;18.22;100.00;101962.03;5023633;28;20025;-57
2023/09/07 04:51:00;;;;;;;23.02;16.33;;;;;;;18.25;100.00;101956.56;5012961;28;20029;-69
2023/09/07 04:53:28;;;;;;;19.58;15.32;;;;;;;18.21;100.00;101954.13;5030426;28;20024;-67
2023/09/07 04:55:53;;;;;;;23.85;15.40;;;;;;;18.23;100.00;101955.75;5030760;28;20029;-70
2023/09/07 04:58:19;;;;;;;20.95;15.23;;;;;;;18.23;100.00;101957.56;5028093;28;20029;-71
2023/09/07 05:00:44;;;;;;;18.45;14.55;;;;;;;18.18;100.00;101953.31;5010029;28;20023;-59
2023/09/07 05:03:09;;;;;;;18.48;14.65;;;;;;;18.21;100.00;101956.78;4992790;28;20033;-68
2023/09/07 05:05:35;;;;;;;20.42;16.08;;;;;;;18.17;100.00;101954.25;5008603;28;20025;-67
2023/09/07 05:08:00;;;;;;;20.17;15.88;;;;;;;18.16;100.00;101962.34;5008522;28;20476;-65
2023/09/07 05:10:25;;;;;;;20.17;15.57;;;;;;;18.18;100.00;101966.66;5002886;28;20448;-71
2023/09/07 05:12:51;;;;;;;19.85;14.63;;;;;;;18.21;100.00;101964.78;5001365;28;20096;-67
2023/09/07 05:15:17;;;;;;;20.33;15.57;;;;;;;18.25;100.00;101966.34;5010420;28;20030;-70
2023/09/07 05:17:42;;;;;;;21.35;16.35;;;;;;;18.21;100.00;101973.63;5009264;28;20038;-74
2023/09/07 05:20:09;;;;;;;18.83;15.05;;;;;;;18.23;100.00;101968.22;5008365;28;20108;-63
2023/09/07 05:22:37;;;;;;;23.13;15.63;;;;;;;18.23;100.00;101971.75;5009396;28;20030;-76
2023/09/07 05:25:03;;;;;;;25.63;16.67;;;;;;;18.24;100.00;101981.50;5009730;28;20017;-70
2023/09/07 05:27:28;;;;;;;21.85;15.13;;;;;;;18.25;100.00;101974.34;5006796;28;20022;-65
2023/09/07 05:29:53;;;;;;;20.38;15.20;;;;;;;18.25;100.00;101975.22;4999658;28;20021;-70
2023/09/07 05:32:19;;;;;;;16.35;14.32;;;;;;;18.24;100.00;101972.63;4997924;28;20110;-65
2023/09/07 05:34:44;;;;;;;20.63;15.63;;;;;;;18.27;100.00;101978.69;4992917;28;20108;-75
2023/09/07 05:37:09;;;;;;;23.08;15.57;;;;;;;18.30;100.00;101969.66;4997261;28;20029;-75
2023/09/07 05:39:35;;;;;;;22.05;15.55;;;;;;;18.38;100.00;101980.81;5009093;28;20026;-65
2023/09/07 05:42:00;;;;;;;22.70;16.55;;;;;;;18.39;100.00;101974.53;5007801;28;20480;-68
2023/09/07 05:44:25;;;;;;;16.88;13.85;;;;;;;18.40;100.00;101970.94;4990803;28;20448;-74
2023/09/07 05:46:51;;;;;;;21.35;15.55;;;;;;;18.44;100.00;101977.88;5008621;28;20018;-67
2023/09/07 05:49:16;;;;;;;18.60;14.38;;;;;;;18.54;100.00;101972.03;5010064;28;20038;-75
2023/09/07 05:51:41;;;;;;;19.00;14.77;;;;;;;18.53;100.00;101975.66;5008016;28;20030;-65
2023/09/07 05:54:07;;;;;;;21.58;15.00;;;;;;;18.54;100.00;101986.25;4990229;28;20021;-67
2023/09/07 05:56:33;;;;;;;22.95;14.18;;;;;;;18.66;100.00;101981.28;5008347;28;20029;-75
2023/09/07 05:58:59;;;;;;;16.95;13.82;;;;;;;18.71;100.00;101983.69;5008565;28;20026;-69
2023/09/07 06:01:24;;;;;;;19.17;13.77;;;;;;;18.77;100.00;101986.06;5008850;28;20048;-75
2023/09/07 06:03:49;;;;;;;17.25;13.23;;;;;;;18.87;100.00;101984.63;5003520;28;20089;-72
2023/09/07 06:06:15;;;;;;;15.40;11.77;;;;;;;18.93;100.00;101991.47;4997022;28;20104;-68
2023/09/07 06:08:40;;;;;;;17.27;12.85;;;;;;;19.00;100.00;101989.38;4998268;28;20101;-69
2023/09/07 06:11:06;;;;;;;19.02;13.90;;;;;;;19.01;100.00;101991.06;4998541;28;20022;-71
2023/09/07 06:13:31;;;;;;;15.95;12.07;;;;;;;19.10;100.00;101997.78;5018641;28;20029;-70
2023/09/07 06:15:57;;;;;;;18.45;13.20;;;;;;;19.11;100.00;102000.38;5004550;28;20106;-60
2023/09/07 06:18:22;;;;;;;14.38;12.00;;;;;;;19.15;100.00;101999.25;4997473;28;20030;-58
2023/09/07 06:20:48;;;;;;;17.73;12.15;;;;;;;19.24;100.00;102002.41;4997697;28;20022;-71
2023/09/07 06:23:13;;;;;;;15.27;12.07;;;;;;;19.28;100.00;101995.97;4998596;28;20025;-68
2023/09/07 06:25:38;;;;;;;17.02;11.73;;;;;;;19.37;100.00;102002.63;5009574;28;20053;-66
2023/09/07 06:28:04;;;;;;;17.17;12.07;;;;;;;19.52;100.00;102006.28;4998745;28;20096;-68
2023/09/07 06:30:30;;;;;;;15.13;10.95;;;;;;;19.54;100.00;102007.09;4996284;28;20681;-69
2023/09/07 06:32:56;;;;;;;17.77;11.73;;;;;;;19.57;100.00;102012.28;4998519;28;20030;-58
2023/09/07 06:35:21;;;;;;;18.13;11.73;;;;;;;19.67;100.00;102020.66;4996192;28;20491;-72
2023/09/07 06:37:47;;;;;;;12.40;10.23;;;;;;;19.79;100.00;102013.78;5009716;28;20066;-80
2023/09/07 06:40:13;;;;;;;14.18;10.32;;;;;;;19.93;100.00;102015.69;5008551;28;20034;-69
2023/09/07 06:42:39;;;;;;;12.93;10.50;;;;;;;20.02;100.00;102015.19;5007111;28;20030;-78
2023/09/07 06:45:05;;;;;;;18.40;11.48;;;;;;;19.98;100.00;102010.09;5009094;28;20029;-67
2023/09/07 06:47:30;;;;;;;18.52;11.32;;;;;;;20.14;100.00;102019.00;5007982;28;20029;-79
2023/09/07 06:49:57;;;;;;;14.43;10.52;;;;;;;20.29;100.00;102005.72;5008954;28;20083;-82
2023/09/07 06:52:22;;;;;;;14.35;10.30;;;;;;;20.40;100.00;102008.63;4989559;28;20027;-58
2023/09/07 06:54:51;;;;;;;15.70;9.43;;;;;;;20.51;100.00;102017.88;4989604;28;20035;-82
2023/09/07 06:57:16;;;;;;;;;;;;;;;20.63;100.00;102013.59;4990688;28;20034;-71
2023/09/07 06:59:43;;;;;;;13.43;9.90;;;;;;;20.64;100.00;102018.00;5000033;28;20000;-80
2023/09/07 07:02:08;;;;;;;13.52;10.77;;;;;;;20.73;100.00;102013.94;5013686;28;20288;-56
2023/09/07 07:04:35;;;;;;;11.52;9.65;;;;;;;20.76;100.00;102019.09;5010069;28;20105;-78
2023/09/07 07:07:03;;;;;;;15.50;10.48;;;;;;;20.71;100.00;102012.22;5009251;28;20392;-78
2023/09/07 07:09:29;;;;;;;19.58;9.27;;;;;;;20.86;100.00;102009.56;5009010;28;20033;-80
2023/09/07 07:11:55;;;;;;;14.15;9.45;;;;;;;20.96;100.00;102017.97;5007937;28;20054;-83
2023/09/07 07:14:20;;;;;;;16.83;9.25;;;;;;;21.01;100.00;102013.19;5009552;28;20030;-69
2023/09/07 07:16:45;;;;;;;10.95;9.18;;;;;;;21.08;100.00;102009.19;5008474;28;20032;-79
2023/09/07 07:19:11;;;;;;;19.02;9.80;;;;;;;21.13;100.00;102006.22;5008044;28;20045;-80
2023/09/07 07:21:36;;;;;;;13.05;9.20;;;;;;;21.23;100.00;102011.03;5009052;28;20034;-76
2023/09/07 07:24:01;;;;;;;17.27;9.63;;;;;;;21.31;100.00;102012.28;5008440;28;20056;-80
2023/09/07 07:26:27;;;;;;;16.10;9.27;;;;;;;21.35;100.00;102018.34;5007792;28;20034;-77
2023/09/07 07:28:52;;;;;;;15.65;8.85;;;;;;;21.48;100.00;102007.69;5008778;28;20040;-60
2023/09/07 07:31:17;;;;;;;12.95;8.02;;;;;;;21.59;100.00;102017.78;5007068;28;20101;-67
2023/09/07 07:33:43;;;;;;;13.80;8.70;;;;;;;21.77;100.00;102014.91;5010060;28;20030;-76
2023/09/07 07:36:08;;;;;;;15.23;7.55;;;;;;;21.89;100.00;102014.16;5008015;28;20560;-70
2023/09/07 07:38:35;;;;;;;10.50;7.70;;;;;;;21.93;100.00;102006.75;5006645;28;20022;-69
2023/09/07 07:41:00;;;;;;;13.95;7.88;;;;;;;22.01;100.00;102007.13;4998881;28;20022;-64
2023/09/07 07:43:26;;;;;;;10.30;7.97;;;;;;;22.07;100.00;102003.19;4994390;28;20460;-69
2023/09/07 07:45:54;;;;;;;12.88;7.85;;;;;;;22.16;100.00;102009.78;5018742;28;20018;-68
2023/09/07 07:48:20;;;;;;;12.02;7.13;;;;;;;22.11;100.00;101996.66;5008114;28;20036;-68
2023/09/07 07:50:45;;;;;;;9.95;7.32;;;;;;;22.21;100.00;101991.53;5008217;28;20021;-69
2023/09/07 07:53:11;;;;;;;11.90;7.07;;;;;;;22.29;100.00;101999.09;5007877;28;20057;-65
2023/09/07 07:55:38;;;;;;;12.63;7.28;;;;;;;22.34;100.00;101994.28;5007392;28;20033;-59
2023/09/07 07:58:09;;;;;;;11.55;6.65;;;;;;;22.41;100.00;101986.69;4988582;28;20455;-66
2023/09/07 08:00:38;;;;;;;10.90;6.40;;;;;;;22.44;100.00;101992.72;5004050;28;20025;-70
2023/09/07 08:03:05;;;;;;;11.32;7.25;;;;;;;22.56;100.00;101993.72;5022490;28;20100;-68
2023/09/07 08:05:33;;;;;;;9.95;7.15;;;;;;;22.65;100.00;101989.59;5026784;28;20036;-67
2023/09/07 08:07:59;;;;;;;10.20;6.95;;;;;;;22.75;100.00;101997.03;5009972;28;20033;-67
2023/09/07 08:10:25;;;;;;;10.15;7.00;;;;;;;22.76;100.00;101994.25;4982856;28;20112;-68
2023/09/07 08:12:54;;;;;;;14.27;6.80;;;;;;;22.83;100.00;101989.28;5003074;28;20045;-65
2023/09/07 08:15:22;;;;;;;10.77;7.38;;;;;;;22.84;100.00;101986.50;5009625;28;20130;-70
2023/09/07 08:17:48;;;;;;;12.02;7.30;;;;;;;22.96;100.00;101984.81;5003264;28;20029;-70
2023/09/07 08:20:13;;;;;;;9.32;6.72;;;;;;;23.00;100.00;101989.97;5001868;28;20371;-66
2023/09/07 08:22:41;;;;;;;12.60;7.72;;;;;;;23.00;100.00;101989.97;4999740;28;20050;-70
2023/09/07 08:25:08;;;;;;;9.75;7.03;;;;;;;23.01;100.00;101984.50;4991301;28;20625;-69
2023/09/07 08:27:33;;;;;;;10.70;6.50;;;;;;;23.13;100.00;101982.78;5032262;28;20064;-68
2023/09/07 08:29:59;;;;;;;8.90;6.15;;;;;;;23.18;100.00;101977.06;5009140;28;20512;-68
2023/09/07 08:32:24;;;;;;;14.07;6.65;;;;;;;23.27;100.00;101976.41;5005603;28;20027;-71
2023/09/07 08:34:50;;;;;;;8.60;6.10;;;;;;;23.36;100.00;101974.94;4998896;28;20025;-62
2023/09/07 08:37:16;;;;;;;10.57;6.93;;;;;;;23.37;100.00;101973.97;5008444;28;20129;-68
2023/09/07 08:39:41;;;;;;;18.40;6.75;;;;;;;23.45;100.00;101976.97;5004567;28;20101;-64
2023/09/07 08:42:06;;;;;;;10.40;6.15;;;;;;;23.52;100.00;101971.16;4999773;28;20056;-52
2023/09/07 08:44:35;;;;;;;7.93;5.78;;;;;;;23.65;100.00;101971.13;4998923;28;20025;-69
2023/09/07 08:47:01;;;;;;;;;;;;;;;23.64;100.00;101970.28;4986282;28;20022;-67
2023/09/07 08:49:26;;;;;;;9.05;5.70;;;;;;;23.76;100.00;101970.34;5008274;28;20269;-60
2023/09/07 08:51:53;;;;;;;11.40;6.38;;;;;;;23.75;100.00;101971.34;4998693;28;20018;-69
2023/09/07 08:54:19;;;;;;;7.85;6.22;;;;;;;23.76;100.00;101967.66;5001101;28;20026;-60
2023/09/07 08:56:45;;;;;;;9.02;5.88;;;;;;;23.86;100.00;101968.72;4980751;28;20041;-68
2023/09/07 08:59:10;;;;;;;6.38;4.68;;;;;;;23.95;100.00;101968.03;4993713;28;20026;-71
2023/09/07 09:01:37;;;;;;;8.75;5.13;;;;;;;24.05;100.00;101965.53;5001693;28;20053;-64
2023/09/07 09:04:02;;;;;;;8.23;5.40;;;;;;;24.16;100.00;101962.06;4998760;28;20081;-66
2023/09/07 09:06:28;;;;;;;6.65;5.70;;;;;;;24.28;100.00;101962.13;5004045;28;20033;-71
2023/09/07 09:08:55;;;;;;;7.93;5.43;;;;;;;24.20;100.00;101960.88;5010513;28;20033;-70
2023/09/07 09:11:21;;;;;;;14.82;5.72;;;;;;;24.39;100.00;101964.88;5009106;28;20038;-63
2023/09/07 09:13:48;;;;;;;11.95;5.43;;;;;;;24.50;100.00;101966.75;5008851;28;20096;-70
2023/09/07 09:16:14;;;;;;;5.78;4.78;;;;;;;24.58;100.00;101968.84;5008656;28;20088;-63
2023/09/07 09:18:53;;;;;;;8.90;5.43;;;;;;;24.63;100.00;101968.50;4992230;28;20185;-66
2023/09/07 09:21:23;;;;;;;8.02;5.45;;;;;;;24.74;98.78;101958.63;5009307;28;20117;-68
2023/09/07 09:23:50;;;;;;;10.82;5.63;;;;;;;24.91;98.05;101958.31;5009098;28;20030;-69
2023/09/07 09:26:16;;;;;;;9.73;5.43;;;;;;;24.95;96.42;101963.34;5009388;28;20025;-67
2023/09/07 09:28:44;;;;;;;7.05;4.95;;;;;;;24.94;94.65;101963.47;5008265;28;20052;-61
2023/09/07 09:31:12;;;;;;;6.70;4.70;;;;;;;24.99;93.68;101963.97;5008730;28;20034;-71
2023/09/07 09:33:41;;;;;;;6.65;4.63;;;;;;;25.11;94.06;101970.25;4974373;28;20042;-68
2023/09/07 09:36:07;;;;;;;11.55;5.05;;;;;;;25.08;94.53;101965.09;5007715;28;20484;-70
2023/09/07 09:38:34;;;;;;;7.55;5.20;;;;;;;25.30;93.42;101968.78;5009143;28;20038;-69
2023/09/07 09:40:59;;;;;;;11.10;4.43;;;;;;;25.38;92.54;101968.16;5008387;28;20034;-65
2023/09/07 09:43:25;;;;;;;10.02;5.00;;;;;;;25.32;92.17;101972.22;5007030;28;20534;-64
2023/09/07 09:45:52;;;;;;;9.35;4.93;;;;;;;25.33;91.54;101964.00;5009157;28;20113;-71
2023/09/07 09:48:19;;;;;;;11.45;5.13;;;;;;;25.38;92.64;101965.47;5008150;28;20030;-66
2023/09/07 09:50:48;;;;;;;4.80;4.30;;;;;;;25.44;90.13;101965.00;5009836;28;20026;-71
2023/09/07 09:53:18;;;;;;;6.57;4.32;;;;;;;25.61;90.12;101961.81;5009023;28;20440;-69
2023/09/07 09:55:46;;;;;;;6.18;4.45;;;;;;;25.71;89.26;101970.00;5008018;28;20018;-72
2023/09/07 09:58:12;;;;;;;;;;;;;;;25.77;88.23;101965.97;5011241;28;20022;-70
2023/09/07 10:00:38;;;;;;;5.65;4.22;;;;;;;25.96;88.58;101970.72;5008838;28;19920;-70
2023/09/07 10:03:07;;;;;;;7.28;4.07;;;;;;;26.02;88.28;101963.09;4990463;28;20026;-61
2023/09/07 10:05:34;;;;;;;;;;;;;;;26.06;86.98;101959.13;4990989;28;20089;-63
2023/09/07 10:08:05;;;;;;;12.27;4.07;;;;;;;26.20;85.40;101961.56;4975043;28;19914;-73
2023/09/07 10:10:34;;;;;;;6.35;3.95;;;;;;;26.28;83.16;101952.81;5010909;28;20033;-64
2023/09/07 10:13:00;;;;;;;8.32;4.10;;;;;;;26.33;81.84;101957.84;5007974;28;20497;-65
2023/09/07 10:15:27;;;;;;;9.10;3.83;;;;;;;26.48;82.61;101953.84;4989997;28;20029;-72
2023/09/07 10:18:13;;;;;;;8.25;4.05;;;;;;;26.52;83.66;101954.47;5008510;28;20065;-63
2023/09/07 10:20:50;;;;;;;6.50;4.20;;;;;;;26.59;84.25;101954.78;5008848;28;20018;-66
2023/09/07 10:23:16;;;;;;;9.37;4.73;;;;;;;26.61;88.89;101948.25;4989624;28;20026;-65
2023/09/07 10:25:41;;;;;;;6.90;4.20;;;;;;;26.78;82.57;101950.53;4987832;28;20122;-71
2023/09/07 10:28:27;;;;;;;8.18;4.43;;;;;;;26.84;84.56;101948.13;4987593;28;20029;-71
2023/09/07 10:31:03;;;;;;;9.68;4.25;;;;;;;27.08;83.16;101954.25;4990736;28;20027;-58
2023/09/07 10:33:29;;;;;;;14.30;4.68;;;;;;;27.08;84.21;101951.53;5009111;28;20025;-71
2023/09/07 10:35:55;;;;;;;7.85;4.60;;;;;;;27.17;83.38;101950.75;5008614;28;20077;-64
2023/09/07 10:38:20;;;;;;;7.25;4.30;;;;;;;27.24;83.12;101946.50;5007452;28;20605;-70
2023/09/07 10:40:48;;;;;;;10.77;4.20;;;;;;;27.35;83.26;101940.16;5009399;28;20222;-69
2023/09/07 10:43:14;;;;;;;6.47;4.95;;;;;;;27.39;85.34;101935.31;5007450;28;20029;-71
2023/09/07 10:45:39;;;;;;;9.15;4.47;;;;;;;27.31;82.11;101938.72;5007020;28;20026;-65
2023/09/07 10:48:06;;;;;;;6.15;3.92;;;;;;;27.46;82.62;101936.50;5008643;28;20064;-63
2023/09/07 10:50:42;;;;;;;6.00;3.72;;;;;;;27.73;80.28;101932.31;5002069;28;20053;-64
2023/09/07 10:53:07;;;;;;;8.75;3.88;;;;;;;27.85;80.86;101934.88;4997041;28;20017;-68
2023/09/07 10:55:38;;;;;;;9.55;4.35;;;;;;;28.07;80.90;101922.94;4996387;28;20026;-64
2023/09/07 10:58:04;;;;;;;6.10;3.65;;;;;;;28.30;77.33;101932.66;4995504;28;20065;-67
2023/09/07 11:00:29;;;;;;;7.82;4.15;;;;;;;28.33;76.74;101933.25;5008554;28;20439;-66
2023/09/07 11:02:54;;;;;;;6.50;3.85;;;;;;;28.36;76.46;101929.38;4998553;28;20024;-61
2023/09/07 11:05:20;;;;;;;5.65;3.58;;;;;;;28.25;75.59;101930.34;4995496;28;20595;-64